Time;durP1;ratioP1;P1;durP2;ratioP2;P2;SDS_P1;SDS_P2;PMS_P1;PMS_P2;Temp;Humidity;BMP_temperature;BMP_pressure;BME280_temperature;BME280_humidity;BME280_pressure;Samples;Min_cycle;Max_cycle;Signal;HPM_P1;HPM_P2
2023/09/03 00:01:22;;;;;;;4.77;3.30;;;17.90;99.90;;;;;;5004291;28;20485;-70
2023/09/03 00:03:49;;;;;;;4.30;2.83;;;18.00;99.90;;;;;;5007547;28;20467;-70
2023/09/03 00:06:16;;;;;;;5.10;3.13;;;17.90;99.90;;;;;;5003625;28;20459;-71
2023/09/03 00:08:43;;;;;;;3.43;3.10;;;18.00;99.90;;;;;;4995333;28;20490;-71
2023/09/03 00:11:09;;;;;;;3.50;3.30;;;17.90;99.90;;;;;;5004402;28;20555;-71
2023/09/03 00:13:36;;;;;;;3.00;2.80;;;17.90;99.90;;;;;;5002254;28;20519;-70
2023/09/03 00:16:03;;;;;;;10.07;3.30;;;18.00;99.90;;;;;;5006120;28;20577;-71
2023/09/03 00:18:29;;;;;;;3.40;3.07;;;18.00;99.90;;;;;;5003606;28;20522;-70
2023/09/03 00:21:00;;;;;;;6.20;3.27;;;18.00;99.90;;;;;;5005392;28;20478;-70
2023/09/03 00:23:27;;;;;;;3.50;3.20;;;18.00;99.90;;;;;;5003932;28;20464;-70
2023/09/03 00:25:56;;;;;;;4.43;3.20;;;18.00;99.90;;;;;;5006521;28;20451;-70
2023/09/03 00:28:22;;;;;;;4.47;3.10;;;17.90;99.90;;;;;;5009445;28;20536;-71
2023/09/03 00:31:02;;;;;;;8.37;4.57;;;17.90;99.90;;;;;;5004697;28;20869;-71
2023/09/03 00:33:28;;;;;;;5.50;3.27;;;17.90;99.90;;;;;;4998148;28;20478;-70
2023/09/03 00:35:55;;;;;;;10.80;3.70;;;17.90;99.90;;;;;;5007805;28;20519;-70
2023/09/03 00:38:23;;;;;;;3.73;3.33;;;17.90;99.90;;;;;;5011207;28;21010;-70
2023/09/03 00:40:50;;;;;;;4.00;3.70;;;17.90;99.90;;;;;;5011683;28;20527;-71
2023/09/03 00:43:17;;;;;;;4.70;3.50;;;17.80;99.90;;;;;;5005203;28;20450;-70
2023/09/03 00:45:47;;;;;;;5.70;3.73;;;17.80;99.90;;;;;;5003940;28;20944;-71
2023/09/03 00:48:18;;;;;;;4.60;3.20;;;17.70;99.90;;;;;;5006486;28;20490;-71
2023/09/03 00:50:47;;;;;;;6.80;4.20;;;17.70;99.90;;;;;;5010920;28;20478;-70
2023/09/03 00:53:16;;;;;;;4.10;3.70;;;17.70;99.90;;;;;;5008144;28;20462;-70
2023/09/03 00:55:44;;;;;;;5.63;4.50;;;17.60;99.90;;;;;;5009102;28;20886;-70
2023/09/03 00:58:11;;;;;;;6.00;3.80;;;17.60;99.90;;;;;;5004034;28;20832;-71
2023/09/03 01:00:38;;;;;;;3.87;3.50;;;17.50;99.90;;;;;;5008229;28;21094;-71
2023/09/03 01:03:05;;;;;;;4.07;3.60;;;17.50;99.90;;;;;;5011297;28;20715;-71
2023/09/03 01:05:32;;;;;;;4.47;4.07;;;17.50;99.90;;;;;;5007734;28;20512;-71
2023/09/03 01:08:01;;;;;;;6.47;4.30;;;17.50;99.90;;;;;;5008070;28;20517;-70
2023/09/03 01:10:35;;;;;;;8.80;4.13;;;17.50;99.90;;;;;;5006900;28;20923;-70
2023/09/03 01:13:12;;;;;;;6.93;3.87;;;17.50;99.90;;;;;;5010640;28;20454;-70
2023/09/03 01:15:44;;;;;;;7.73;4.97;;;17.40;99.90;;;;;;5009050;28;20916;-71
2023/09/03 01:18:17;;;;;;;10.93;4.40;;;17.40;99.90;;;;;;5005439;28;20463;-71
2023/09/03 01:20:59;;;;;;;5.10;4.60;;;17.40;99.90;;;;;;5005625;28;20478;-71
2023/09/03 01:23:41;;;;;;;5.80;4.63;;;17.30;99.90;;;;;;5011641;28;20537;-71
2023/09/03 01:26:15;;;;;;;5.70;4.80;;;17.30;99.90;;;;;;5009587;28;20460;-71
2023/09/03 01:28:44;;;;;;;6.03;5.20;;;17.20;99.90;;;;;;5006204;28;20490;-71
2023/09/03 01:31:13;;;;;;;6.53;5.07;;;17.20;99.90;;;;;;5010216;28;20497;-71
2023/09/03 01:33:42;;;;;;;5.47;4.93;;;17.20;99.90;;;;;;5007679;28;20455;-71
2023/09/03 01:36:10;;;;;;;7.00;4.93;;;17.20;99.90;;;;;;5011676;28;20450;-71
2023/09/03 01:38:37;;;;;;;6.00;5.40;;;17.20;99.90;;;;;;5012192;28;20458;-71
2023/09/03 01:41:05;;;;;;;5.57;5.07;;;17.20;99.90;;;;;;5000990;28;21009;-71
2023/09/03 01:43:31;;;;;;;7.20;5.80;;;17.20;99.90;;;;;;5004840;28;20818;-70
2023/09/03 01:46:05;;;;;;;6.60;5.83;;;17.10;99.90;;;;;;5007475;28;20450;-70
2023/09/03 01:48:44;;;;;;;6.33;5.73;;;17.10;99.90;;;;;;5011009;28;20570;-69
2023/09/03 01:51:16;;;;;;;6.63;5.70;;;17.10;99.90;;;;;;5011758;28;20476;-70
2023/09/03 01:53:48;;;;;;;6.90;5.90;;;17.10;99.90;;;;;;5003874;28;20466;-70
2023/09/03 01:56:18;;;;;;;10.50;6.40;;;17.10;99.90;;;;;;5008676;28;20454;-70
2023/09/03 01:58:46;;;;;;;7.93;6.20;;;17.00;99.90;;;;;;5002853;28;20455;-70
2023/09/03 02:01:16;;;;;;;15.97;6.70;;;17.10;99.90;;;;;;5001668;28;20466;-69
2023/09/03 02:03:45;;;;;;;7.40;6.70;;;17.00;99.90;;;;;;5005120;28;20871;-70
2023/09/03 02:06:12;;;;;;;7.50;6.20;;;17.00;99.90;;;;;;5004950;28;20542;-70
2023/09/03 02:08:39;;;;;;;8.80;7.33;;;17.00;99.90;;;;;;5007389;28;20490;-70
2023/09/03 02:11:05;;;;;;;13.33;7.80;;;16.90;99.90;;;;;;5010189;28;20449;-70
2023/09/03 02:13:32;;;;;;;8.70;7.47;;;16.90;99.90;;;;;;5006348;28;20505;-70
2023/09/03 02:15:59;;;;;;;12.40;7.97;;;16.90;99.90;;;;;;5008879;28;20936;-70
2023/09/03 02:18:27;;;;;;;9.70;7.80;;;16.80;99.90;;;;;;5009906;28;20467;-70
2023/09/03 02:20:54;;;;;;;10.90;8.50;;;16.80;99.90;;;;;;5011208;28;20487;-70
2023/09/03 02:23:21;;;;;;;12.47;8.60;;;16.80;99.90;;;;;;5011574;28;20458;-70
2023/09/03 02:25:47;;;;;;;10.83;8.07;;;16.70;99.90;;;;;;5006198;28;20500;-70
2023/09/03 02:28:14;;;;;;;11.00;9.20;;;16.70;99.90;;;;;;5005704;28;20478;-69
2023/09/03 02:30:40;;;;;;;14.50;11.53;;;16.70;99.90;;;;;;5003091;28;20962;-70
2023/09/03 02:33:07;;;;;;;17.10;11.10;;;16.70;99.90;;;;;;5010639;28;20465;-70
2023/09/03 02:35:35;;;;;;;15.03;10.80;;;16.70;99.90;;;;;;5011509;28;20458;-70
2023/09/03 02:38:02;;;;;;;17.17;12.10;;;16.70;99.90;;;;;;4999540;28;20424;-70
2023/09/03 02:40:28;;;;;;;14.10;10.97;;;16.70;99.90;;;;;;5008749;28;20476;-70
2023/09/03 02:42:56;;;;;;;20.07;11.70;;;16.70;99.90;;;;;;5007727;28;20461;-70
2023/09/03 02:45:23;;;;;;;18.67;13.10;;;16.70;99.90;;;;;;5008705;28;21130;-70
2023/09/03 02:47:50;;;;;;;18.10;13.50;;;16.80;99.90;;;;;;5009562;28;20462;-70
2023/09/03 02:50:16;;;;;;;22.57;12.30;;;16.80;99.90;;;;;;5000588;28;20875;-70
2023/09/03 02:52:44;;;;;;;19.83;12.77;;;16.80;99.90;;;;;;5010184;28;20532;-70
2023/09/03 02:55:12;;;;;;;23.33;13.80;;;16.80;99.90;;;;;;5010478;28;20477;-70
2023/09/03 02:57:39;;;;;;;16.10;12.67;;;16.80;99.90;;;;;;5010662;28;20541;-70
2023/09/03 03:00:08;;;;;;;17.77;13.07;;;16.80;99.90;;;;;;5004686;28;20498;-70
2023/09/03 03:02:35;;;;;;;29.57;17.53;;;16.80;99.90;;;;;;5005999;28;20998;-70
2023/09/03 03:05:02;;;;;;;26.13;15.90;;;16.80;99.90;;;;;;5008700;28;21029;-70
2023/09/03 03:07:29;;;;;;;32.33;15.73;;;16.90;99.90;;;;;;5009795;28;20469;-70
2023/09/03 03:09:57;;;;;;;27.33;14.43;;;16.90;99.90;;;;;;5010416;28;20494;-70
2023/09/03 03:12:23;;;;;;;26.10;15.80;;;16.90;99.90;;;;;;5008378;28;20479;-70
2023/09/03 03:14:50;;;;;;;21.83;15.73;;;16.90;99.90;;;;;;5005504;28;20445;-70
2023/09/03 03:17:17;;;;;;;19.87;14.77;;;16.90;99.90;;;;;;5007481;28;20470;-70
2023/09/03 03:19:43;;;;;;;20.90;14.53;;;16.90;99.90;;;;;;5006586;28;20509;-70
2023/09/03 03:22:13;;;;;;;24.53;15.90;;;16.90;99.90;;;;;;5003632;28;20533;-70
2023/09/03 03:24:39;;;;;;;25.20;16.80;;;16.80;99.90;;;;;;5001503;28;20465;-70
2023/09/03 03:27:07;;;;;;;24.37;16.00;;;16.80;99.90;;;;;;5009900;28;20466;-70
2023/09/03 03:29:34;;;;;;;26.90;16.03;;;16.80;99.90;;;;;;5007984;28;21076;-71
2023/09/03 03:32:01;;;;;;;28.03;18.07;;;16.80;99.90;;;;;;5005677;28;20481;-70
2023/09/03 03:34:27;;;;;;;24.10;17.77;;;16.80;99.90;;;;;;5005032;28;20458;-71
2023/09/03 03:36:54;;;;;;;24.90;17.13;;;16.80;99.90;;;;;;5005490;28;20462;-71
2023/09/03 03:39:21;;;;;;;26.03;16.50;;;16.80;99.90;;;;;;5008987;28;20501;-71
2023/09/03 03:41:48;;;;;;;26.90;17.70;;;16.80;99.90;;;;;;5008091;28;20967;-70
2023/09/03 03:44:15;;;;;;;26.17;17.20;;;16.80;99.90;;;;;;5007885;28;20500;-71
2023/09/03 03:46:42;;;;;;;24.40;16.83;;;16.80;99.90;;;;;;5002200;28;20458;-71
2023/09/03 03:49:09;;;;;;;30.47;17.07;;;16.80;99.90;;;;;;5007447;28;20548;-71
2023/09/03 03:51:36;;;;;;;29.20;17.30;;;16.80;99.90;;;;;;5009697;28;20509;-70
2023/09/03 03:54:04;;;;;;;28.23;16.80;;;16.70;99.90;;;;;;5009625;28;20458;-71
2023/09/03 03:56:31;;;;;;;23.17;16.27;;;16.70;99.90;;;;;;5002366;28;20471;-71
2023/09/03 03:58:57;;;;;;;27.73;18.20;;;16.70;99.90;;;;;;5004087;28;20485;-71
2023/09/03 04:01:25;;;;;;;23.10;16.90;;;16.70;99.90;;;;;;5005679;28;20531;-70
2023/09/03 04:03:53;;;;;;;25.70;17.40;;;16.70;99.90;;;;;;5008410;28;20609;-71
2023/09/03 04:06:20;;;;;;;24.70;17.47;;;16.70;99.90;;;;;;5009577;28;20451;-71
2023/09/03 04:08:47;;;;;;;25.20;16.80;;;16.70;99.90;;;;;;5005232;28;20930;-71
2023/09/03 04:11:15;;;;;;;28.00;17.07;;;16.70;99.90;;;;;;5006634;28;21080;-71
2023/09/03 04:13:42;;;;;;;24.10;17.57;;;16.70;99.90;;;;;;5011717;28;20524;-71
2023/09/03 04:16:11;;;;;;;22.40;16.27;;;16.70;99.90;;;;;;5010731;28;20520;-71
2023/09/03 04:18:39;;;;;;;31.77;17.83;;;16.70;99.90;;;;;;5008195;28;21005;-71
2023/09/03 04:21:06;;;;;;;29.70;18.47;;;16.70;99.90;;;;;;5006822;28;20481;-70
2023/09/03 04:23:32;;;;;;;25.73;17.50;;;16.70;99.90;;;;;;5010767;28;20462;-71
2023/09/03 04:25:59;;;;;;;27.77;18.90;;;16.70;99.90;;;;;;5013413;28;20465;-71
2023/09/03 04:28:26;;;;;;;31.53;18.03;;;16.70;99.90;;;;;;5012283;28;20468;-71
2023/09/03 04:30:54;;;;;;;27.73;18.80;;;16.60;99.90;;;;;;5006622;28;20482;-71
2023/09/03 04:33:21;;;;;;;27.30;18.57;;;16.60;99.90;;;;;;5011376;28;20542;-71
2023/09/03 04:35:55;;;;;;;24.60;17.23;;;16.60;99.90;;;;;;5011697;28;20451;-71
2023/09/03 04:38:22;;;;;;;29.47;18.70;;;16.60;99.90;;;;;;5007870;28;20554;-71
2023/09/03 04:40:49;;;;;;;31.13;18.70;;;16.60;99.90;;;;;;5004030;28;20475;-70
2023/09/03 04:43:15;;;;;;;25.00;18.07;;;16.60;99.90;;;;;;5010316;28;20939;-71
2023/09/03 04:45:47;;;;;;;29.40;18.97;;;16.60;99.90;;;;;;5013185;28;20458;-71
2023/09/03 04:48:13;;;;;;;28.27;18.40;;;16.60;99.90;;;;;;5009173;28;20490;-72
2023/09/03 04:50:40;;;;;;;26.63;18.20;;;16.60;99.90;;;;;;5009641;28;20473;-70
2023/09/03 04:53:09;;;;;;;28.93;18.70;;;16.60;99.90;;;;;;5008382;28;20462;-70
2023/09/03 04:55:35;;;;;;;26.33;18.30;;;16.50;99.90;;;;;;5007761;28;20554;-70
2023/09/03 04:58:02;;;;;;;27.63;18.67;;;16.50;99.90;;;;;;5011818;28;20455;-70
2023/09/03 05:00:29;;;;;;;26.63;18.27;;;16.50;99.90;;;;;;5008943;28;20509;-71
2023/09/03 05:02:56;;;;;;;31.40;19.13;;;16.40;99.90;;;;;;5009496;28;20845;-70
2023/09/03 05:05:23;;;;;;;23.80;16.83;;;16.40;99.90;;;;;;5010597;28;20462;-70
2023/09/03 05:07:50;;;;;;;28.97;18.73;;;16.40;99.90;;;;;;5012203;28;20890;-70
2023/09/03 05:10:18;;;;;;;26.97;18.70;;;16.40;99.90;;;;;;5008471;28;20485;-70
2023/09/03 05:12:45;;;;;;;27.80;18.53;;;16.40;99.90;;;;;;5007175;28;20514;-70
2023/09/03 05:15:12;;;;;;;28.50;19.30;;;16.40;99.90;;;;;;5008713;28;20923;-70
2023/09/03 05:17:39;;;;;;;28.60;18.50;;;16.40;99.90;;;;;;5010421;28;20458;-70
2023/09/03 05:20:08;;;;;;;25.57;18.00;;;16.50;99.90;;;;;;5012643;28;20454;-70
2023/09/03 05:22:35;;;;;;;27.00;18.00;;;16.50;99.90;;;;;;5002883;28;20882;-70
2023/09/03 05:25:02;;;;;;;25.40;17.93;;;16.50;99.90;;;;;;5010971;28;20458;-70
2023/09/03 05:27:31;;;;;;;28.83;17.53;;;16.60;99.90;;;;;;5010181;28;20459;-70
2023/09/03 05:29:58;;;;;;;27.67;17.87;;;16.70;99.90;;;;;;5009647;28;20490;-70
2023/09/03 05:32:24;;;;;;;30.30;18.50;;;16.80;99.90;;;;;;5007730;28;20552;-69
2023/09/03 05:34:51;;;;;;;26.00;17.40;;;16.80;99.90;;;;;;5008899;28;20953;-70
2023/09/03 05:37:18;;;;;;;23.50;15.93;;;17.00;99.90;;;;;;5007478;28;20434;-70
2023/09/03 05:39:45;;;;;;;22.50;16.77;;;17.10;99.90;;;;;;5012355;28;20947;-68
2023/09/03 05:42:11;;;;;;;23.90;16.03;;;17.20;99.90;;;;;;5011324;28;20482;-68
2023/09/03 05:44:39;;;;;;;23.57;16.70;;;17.20;99.90;;;;;;5009300;28;20455;-68
2023/09/03 05:47:06;;;;;;;22.30;16.10;;;17.30;99.90;;;;;;5009223;28;20462;-68
2023/09/03 05:49:33;;;;;;;25.20;17.90;;;17.30;99.90;;;;;;5006740;28;20494;-68
2023/09/03 05:51:59;;;;;;;23.27;16.00;;;17.30;99.90;;;;;;5009567;28;20474;-68
2023/09/03 05:54:26;;;;;;;24.60;15.77;;;17.30;99.90;;;;;;5009363;28;20718;-68
2023/09/03 05:56:53;;;;;;;24.33;15.30;;;17.20;99.90;;;;;;5007715;28;20642;-68
2023/09/03 05:59:19;;;;;;;22.27;15.80;;;17.20;99.90;;;;;;5009347;28;20500;-68
2023/09/03 06:01:48;;;;;;;24.33;15.57;;;17.20;99.90;;;;;;5005489;28;20478;-68
2023/09/03 06:04:16;;;;;;;23.70;16.40;;;17.20;99.90;;;;;;5006608;28;20512;-68
2023/09/03 06:06:43;;;;;;;25.63;15.23;;;17.20;99.90;;;;;;5008685;28;20463;-69
2023/09/03 06:09:10;;;;;;;24.37;16.53;;;17.20;99.90;;;;;;5000542;28;20493;-68
2023/09/03 06:11:37;;;;;;;19.73;14.90;;;17.30;99.90;;;;;;5009244;28;20532;-68
2023/09/03 06:14:04;;;;;;;24.57;16.40;;;17.30;99.90;;;;;;5007548;28;20919;-68
2023/09/03 06:16:30;;;;;;;26.10;15.30;;;17.30;99.90;;;;;;5010098;28;20464;-67
2023/09/03 06:18:58;;;;;;;21.03;15.50;;;17.30;99.90;;;;;;5005334;28;20501;-68
2023/09/03 06:21:26;;;;;;;22.37;14.93;;;17.30;99.90;;;;;;5005417;28;20479;-67
2023/09/03 06:23:53;;;;;;;22.40;14.17;;;17.30;99.90;;;;;;5009689;28;20489;-68
2023/09/03 06:26:20;;;;;;;22.50;15.30;;;17.40;99.90;;;;;;5008596;28;20451;-68
2023/09/03 06:28:47;;;;;;;22.07;14.07;;;17.40;99.90;;;;;;5007412;28;20462;-68
2023/09/03 06:31:14;;;;;;;27.60;14.57;;;17.40;99.90;;;;;;5009937;28;20525;-68
2023/09/03 06:33:41;;;;;;;18.17;13.40;;;17.40;99.90;;;;;;5007678;28;21024;-68
2023/09/03 06:36:10;;;;;;;19.57;13.20;;;17.40;99.90;;;;;;5006409;28;20480;-68
2023/09/03 06:38:38;;;;;;;19.97;14.23;;;17.40;99.90;;;;;;5010582;28;20504;-68
2023/09/03 06:41:05;;;;;;;21.20;14.40;;;17.40;99.90;;;;;;5008374;28;20499;-68
2023/09/03 06:43:32;;;;;;;19.90;13.40;;;17.40;99.90;;;;;;5005966;28;21022;-69
2023/09/03 06:45:59;;;;;;;19.80;12.07;;;17.30;99.90;;;;;;5007157;28;20509;-68
2023/09/03 06:48:25;;;;;;;18.93;11.90;;;17.30;99.90;;;;;;5008697;28;20471;-71
2023/09/03 06:50:52;;;;;;;17.37;12.73;;;17.30;99.90;;;;;;5002387;28;20529;-78
2023/09/03 06:53:20;;;;;;;25.33;14.20;;;17.40;99.90;;;;;;5007478;28;20918;-77
2023/09/03 06:55:47;;;;;;;22.27;13.97;;;17.50;99.90;;;;;;5003022;28;20666;-77
2023/09/03 06:58:14;;;;;;;21.70;14.97;;;17.60;99.90;;;;;;5008672;28;20458;-77
2023/09/03 07:00:42;;;;;;;17.47;12.73;;;17.70;99.90;;;;;;5007517;28;20478;-77
2023/09/03 07:03:08;;;;;;;21.50;14.30;;;17.90;99.90;;;;;;5002434;28;20463;-77
2023/09/03 07:05:35;;;;;;;22.93;15.73;;;18.00;99.90;;;;;;5004138;28;20521;-76
2023/09/03 07:08:02;;;;;;;24.83;16.10;;;18.00;99.90;;;;;;5008256;28;20454;-77
2023/09/03 07:10:31;;;;;;;25.17;15.80;;;18.00;99.90;;;;;;5010466;28;20935;-75
2023/09/03 07:12:58;;;;;;;22.43;15.80;;;18.00;99.90;;;;;;5009138;28;20469;-75
2023/09/03 07:15:24;;;;;;;25.30;15.70;;;18.00;99.90;;;;;;5009323;28;21036;-77
2023/09/03 07:17:51;;;;;;;25.80;16.43;;;18.00;99.90;;;;;;5007535;28;20452;-76
2023/09/03 07:20:18;;;;;;;22.23;16.10;;;18.10;99.90;;;;;;5007479;28;20466;-76
2023/09/03 07:22:44;;;;;;;31.30;18.20;;;18.10;99.90;;;;;;5009482;28;20461;-75
2023/09/03 07:25:11;;;;;;;25.17;15.77;;;18.20;99.90;;;;;;5006864;28;20451;-76
2023/09/03 07:27:39;;;;;;;25.87;16.17;;;18.20;99.90;;;;;;5010577;28;20454;-76
2023/09/03 07:30:07;;;;;;;23.07;16.10;;;18.20;99.90;;;;;;5006428;28;20485;-76
2023/09/03 07:32:36;;;;;;;26.80;17.63;;;18.20;99.90;;;;;;5009152;28;20454;-79
2023/09/03 07:35:04;;;;;;;29.73;19.70;;;18.20;99.90;;;;;;5005495;28;20497;-76
2023/09/03 07:37:30;;;;;;;29.93;18.33;;;18.20;99.90;;;;;;5005600;28;20462;-76
2023/09/03 07:39:57;;;;;;;29.00;18.33;;;18.20;99.90;;;;;;5009983;28;20446;-76
2023/09/03 07:42:24;;;;;;;31.23;19.37;;;18.20;99.90;;;;;;5006156;28;20557;-76
2023/09/03 07:44:52;;;;;;;33.97;21.60;;;18.20;99.90;;;;;;5005894;28;20997;-76
2023/09/03 07:47:18;;;;;;;28.70;19.23;;;18.20;99.90;;;;;;5012632;28;20421;-75
2023/09/03 07:49:45;;;;;;;30.63;18.80;;;18.30;99.90;;;;;;5011682;28;20489;-76
2023/09/03 07:52:11;;;;;;;30.40;20.10;;;18.30;99.90;;;;;;5003810;28;20536;-78
2023/09/03 07:54:39;;;;;;;38.70;20.83;;;18.40;99.90;;;;;;5017493;28;20464;-78
2023/09/03 07:57:06;;;;;;;40.93;19.53;;;18.40;99.90;;;;;;5014260;28;20749;-78
2023/09/03 07:59:32;;;;;;;35.00;20.90;;;18.40;99.90;;;;;;5013246;28;20507;-78
2023/09/03 08:02:01;;;;;;;28.37;18.90;;;18.40;99.90;;;;;;5015242;28;20481;-82
2023/09/03 08:04:28;;;;;;;29.60;19.40;;;18.50;99.90;;;;;;5019354;28;20494;-80
2023/09/03 08:06:55;;;;;;;32.73;20.77;;;18.60;99.90;;;;;;5019646;28;20466;-76
2023/09/03 08:09:24;;;;;;;25.37;19.00;;;18.60;99.90;;;;;;5013878;28;20524;-76
2023/09/03 08:11:50;;;;;;;35.70;19.70;;;18.70;99.90;;;;;;5012965;28;20482;-77
2023/09/03 08:14:17;;;;;;;29.47;18.80;;;18.80;99.90;;;;;;5010698;28;20549;-77
2023/09/03 08:16:44;;;;;;;30.87;19.27;;;18.80;99.90;;;;;;5005735;28;20454;-77
2023/09/03 08:19:12;;;;;;;28.97;18.60;;;19.00;99.90;;;;;;5007562;28;20988;-78
2023/09/03 08:21:38;;;;;;;29.57;19.53;;;19.00;99.90;;;;;;5010323;28;21011;-77
2023/09/03 08:24:05;;;;;;;26.10;17.73;;;19.20;99.90;;;;;;5005282;28;20517;-77
2023/09/03 08:26:32;;;;;;;31.50;19.03;;;19.50;99.90;;;;;;5013218;28;20469;-77
2023/09/03 08:28:59;;;;;;;27.07;17.17;;;19.80;99.90;;;;;;5010695;28;20466;-77
2023/09/03 08:31:25;;;;;;;28.83;16.70;;;20.10;99.90;;;;;;5010058;28;20893;-76
2023/09/03 08:33:53;;;;;;;25.40;18.40;;;20.40;99.90;;;;;;5004113;28;20596;-77
2023/09/03 08:36:22;;;;;;;26.40;17.23;;;20.70;99.90;;;;;;5005185;28;20466;-75
2023/09/03 08:38:49;;;;;;;25.90;17.60;;;20.90;99.90;;;;;;5003625;28;20517;-77
2023/09/03 08:41:16;;;;;;;22.70;16.03;;;21.00;99.90;;;;;;5007099;28;20470;-77
2023/09/03 08:43:46;;;;;;;38.47;17.37;;;21.30;99.90;;;;;;5011833;28;21006;-77
2023/09/03 08:46:16;;;;;;;28.43;18.27;;;21.20;99.90;;;;;;5010445;28;20531;-79
2023/09/03 08:48:44;;;;;;;25.33;17.77;;;21.20;99.90;;;;;;5011330;28;20512;-80
2023/09/03 08:51:11;;;;;;;23.37;15.83;;;21.10;99.90;;;;;;5011289;28;20493;-76
2023/09/03 08:53:40;;;;;;;25.13;16.90;;;21.00;99.90;;;;;;5006970;28;20469;-77
2023/09/03 08:56:07;;;;;;;23.50;16.67;;;20.90;99.90;;;;;;5003422;28;20479;-77
2023/09/03 08:58:34;;;;;;;29.70;18.80;;;21.00;99.90;;;;;;5011150;28;20465;-77
2023/09/03 09:01:01;;;;;;;25.33;17.30;;;20.80;99.90;;;;;;5005769;28;20466;-77
2023/09/03 09:03:30;;;;;;;23.60;16.37;;;21.00;99.90;;;;;;5005230;28;20451;-77
2023/09/03 09:05:58;;;;;;;20.77;15.50;;;21.20;99.90;;;;;;5009361;28;20451;-76
2023/09/03 09:08:25;;;;;;;21.40;15.33;;;21.40;99.90;;;;;;5006753;28;20455;-77
2023/09/03 09:10:55;;;;;;;21.40;14.60;;;21.70;99.90;;;;;;5011233;28;20552;-77
2023/09/03 09:13:24;;;;;;;22.93;15.40;;;21.90;99.90;;;;;;5011404;28;20455;-76
2023/09/03 09:15:51;;;;;;;19.90;14.23;;;22.20;99.90;;;;;;5008594;28;20473;-76
2023/09/03 09:18:18;;;;;;;17.20;12.90;;;22.50;99.90;;;;;;5007984;28;20863;-74
2023/09/03 09:20:46;;;;;;;19.70;14.40;;;22.70;99.90;;;;;;5002204;28;20462;-75
2023/09/03 09:23:21;;;;;;;19.77;13.87;;;22.90;99.90;;;;;;5007537;28;20455;-76
2023/09/03 09:25:48;;;;;;;22.77;14.43;;;22.90;99.90;;;;;;5010105;28;20462;-75
2023/09/03 09:28:16;;;;;;;19.40;14.73;;;23.00;99.90;;;;;;5016478;28;20822;-76
2023/09/03 09:30:54;;;;;;;21.00;14.63;;;22.90;99.90;;;;;;5015872;28;20566;-75
2023/09/03 09:33:21;;;;;;;20.20;12.70;;;22.80;99.90;;;;;;5015885;28;20456;-77
2023/09/03 09:35:47;;;;;;;17.77;13.10;;;22.70;99.90;;;;;;5015950;28;20955;-76
2023/09/03 09:38:15;;;;;;;19.50;13.60;;;22.70;99.90;;;;;;5017090;28;20466;-75
2023/09/03 09:40:42;;;;;;;17.83;12.70;;;22.60;99.90;;;;;;5015500;28;20479;-75
2023/09/03 09:43:08;;;;;;;18.50;12.80;;;22.80;99.90;;;;;;5016761;28;20461;-76
2023/09/03 09:45:46;;;;;;;15.47;12.50;;;23.10;99.90;;;;;;5016795;28;20704;-75
2023/09/03 09:48:13;;;;;;;19.10;12.03;;;23.30;99.90;;;;;;5017848;28;20453;-75
2023/09/03 09:50:41;;;;;;;17.20;11.20;;;23.30;99.90;;;;;;5016299;28;20489;-75
2023/09/03 09:53:20;;;;;;;15.37;11.03;;;23.50;99.90;;;;;;5014946;28;20460;-75
2023/09/03 09:55:47;;;;;;;14.83;10.67;;;23.80;99.90;;;;;;5015920;28;20470;-75
2023/09/03 09:58:14;;;;;;;15.60;11.57;;;24.10;99.90;;;;;;5016641;28;20509;-75
2023/09/03 10:00:43;;;;;;;13.47;10.10;;;24.00;99.90;;;;;;5013671;28;20476;-75
2023/09/03 10:03:11;;;;;;;16.03;9.77;;;23.90;99.90;;;;;;5015124;28;20465;-75
2023/09/03 10:05:38;;;;;;;13.57;10.20;;;23.60;99.90;;;;;;5018020;28;20544;-75
2023/09/03 10:08:06;;;;;;;19.50;11.47;;;23.50;99.90;;;;;;5017466;28;20536;-75
2023/09/03 10:10:32;;;;;;;15.70;10.80;;;23.60;99.90;;;;;;5017325;28;20932;-75
2023/09/03 10:13:00;;;;;;;12.70;9.73;;;23.90;99.90;;;;;;5017404;28;21034;-75
2023/09/03 10:15:29;;;;;;;13.93;10.93;;;23.80;99.90;;;;;;5016223;28;20473;-75
2023/09/03 10:18:03;;;;;;;13.07;10.20;;;23.70;99.90;;;;;;5017695;28;20470;-75
2023/09/03 10:20:30;;;;;;;11.97;8.93;;;23.50;99.90;;;;;;5016769;28;20477;-75
2023/09/03 10:22:57;;;;;;;14.40;8.90;;;23.40;99.90;;;;;;5017071;28;20453;-75
2023/09/03 10:25:29;;;;;;;13.50;8.60;;;23.50;99.90;;;;;;5017588;28;21039;-75
2023/09/03 10:28:00;;;;;;;12.30;8.70;;;23.80;99.90;;;;;;5017068;28;21706;-75
2023/09/03 10:30:31;;;;;;;8.73;7.73;;;24.10;99.90;;;;;;5017005;28;20482;-76
2023/09/03 10:33:00;;;;;;;10.73;8.13;;;24.40;99.90;;;;;;5017381;28;21126;-75
2023/09/03 10:35:26;;;;;;;9.80;7.60;;;24.60;99.90;;;;;;5017589;28;20504;-75
2023/09/03 10:37:53;;;;;;;8.10;7.07;;;24.80;99.90;;;;;;5017198;28;20457;-76
2023/09/03 10:40:22;;;;;;;9.13;7.30;;;25.00;99.90;;;;;;5016984;28;20453;-76
2023/09/03 10:42:49;;;;;;;8.13;7.27;;;25.20;99.90;;;;;;5014037;28;20453;-76
2023/09/03 10:45:16;;;;;;;10.03;6.50;;;25.10;99.90;;;;;;5016172;28;20505;-76
2023/09/03 10:48:05;;;;;;;9.97;7.90;;;24.90;99.90;;;;;;5016135;28;21762;-75
2023/09/03 10:50:45;;;;;;;7.20;6.50;;;24.80;99.90;;;;;;5010122;28;20854;-75
2023/09/03 10:53:34;;;;;;;8.50;7.17;;;24.90;99.90;;;;;;5014847;28;20461;-75
2023/09/03 10:56:12;;;;;;;8.90;6.70;;;25.30;99.90;;;;;;5017421;28;20828;-75
2023/09/03 10:58:55;;;;;;;8.77;7.00;;;25.60;99.90;;;;;;5014968;28;20461;-75
2023/09/03 11:01:24;;;;;;;9.10;6.43;;;25.80;99.90;;;;;;5016542;28;20468;-75
2023/09/03 11:03:53;;;;;;;8.33;7.13;;;26.00;99.90;;;;;;5015591;28;20465;-75
2023/09/03 11:06:21;;;;;;;11.67;5.60;;;26.10;99.90;;;;;;5015898;28;20875;-75
2023/09/03 11:08:49;;;;;;;8.93;7.30;;;26.20;99.90;;;;;;5016408;28;20451;-75
2023/09/03 11:11:20;;;;;;;7.40;6.60;;;25.90;99.90;;;;;;5015873;28;20490;-75
2023/09/03 11:13:54;;;;;;;6.77;6.17;;;25.70;99.90;;;;;;5015441;28;20540;-76
2023/09/03 11:16:27;;;;;;;6.20;5.60;;;25.80;99.90;;;;;;5016230;28;20516;-76
2023/09/03 11:18:55;;;;;;;7.30;5.73;;;26.00;99.90;;;;;;5015931;28;20453;-76
2023/09/03 11:21:24;;;;;;;6.83;6.13;;;26.10;99.90;;;;;;5016880;28;20473;-76
2023/09/03 11:24:04;;;;;;;6.50;5.37;;;26.10;99.90;;;;;;5016366;28;20505;-73
2023/09/03 11:26:32;;;;;;;6.50;5.27;;;26.20;99.90;;;;;;5015627;28;21261;-75
2023/09/03 11:28:59;;;;;;;5.97;5.30;;;26.30;99.90;;;;;;5016001;28;20964;-75
2023/09/03 11:31:25;;;;;;;5.97;5.37;;;26.60;99.90;;;;;;5015854;28;20555;-73
2023/09/03 11:33:52;;;;;;;5.40;4.90;;;26.80;99.90;;;;;;5015968;28;20466;-74
2023/09/03 11:36:21;;;;;;;6.70;5.13;;;26.80;99.90;;;;;;5016564;28;20449;-75
2023/09/03 11:38:48;;;;;;;5.60;5.03;;;27.00;99.90;;;;;;5016157;28;20458;-73
2023/09/03 11:41:16;;;;;;;6.57;4.50;;;27.10;99.90;;;;;;5015881;28;20660;-74
2023/09/03 11:43:43;;;;;;;5.00;4.50;;;27.30;99.90;;;;;;5015624;28;20500;-74
2023/09/03 11:46:13;;;;;;;4.97;4.27;;;27.10;99.90;;;;;;5016689;28;20484;-73
2023/09/03 11:48:40;;;;;;;5.60;4.70;;;27.30;99.90;;;;;;5016401;28;20449;-74
2023/09/03 11:51:06;;;;;;;4.47;4.17;;;27.30;99.90;;;;;;5016028;28;20517;-77
2023/09/03 11:53:41;;;;;;;5.23;4.40;;;27.20;99.90;;;;;;5017131;28;20470;-75
2023/09/03 11:56:10;;;;;;;5.50;4.97;;;27.10;99.90;;;;;;5015869;28;20954;-74
2023/09/03 11:58:38;;;;;;;11.40;4.33;;;27.00;99.90;;;;;;5015097;28;20493;-75
2023/09/03 12:01:05;;;;;;;4.13;3.83;;;27.00;99.90;;;;;;5016084;28;20473;-75
2023/09/03 12:03:31;;;;;;;4.83;4.43;;;27.10;99.90;;;;;;5016369;28;20458;-76
2023/09/03 12:05:58;;;;;;;5.77;4.43;;;27.00;99.90;;;;;;5015162;28;20501;-76
2023/09/03 12:08:26;;;;;;;5.50;3.80;;;26.80;99.90;;;;;;5015596;28;20505;-76
2023/09/03 12:10:54;;;;;;;4.50;4.10;;;26.70;99.90;;;;;;5015472;28;20566;-76
2023/09/03 12:13:34;;;;;;;5.07;4.43;;;26.80;99.90;;;;;;5015477;28;20890;-76
2023/09/03 12:16:09;;;;;;;4.83;4.33;;;27.00;99.90;;;;;;5015575;28;20461;-76
2023/09/03 12:18:36;;;;;;;4.63;4.20;;;27.10;99.90;;;;;;5016061;28;20493;-76
2023/09/03 12:21:03;;;;;;;4.47;4.00;;;27.30;99.90;;;;;;5016828;28;20465;-76
2023/09/03 12:23:31;;;;;;;4.83;4.50;;;27.40;99.90;;;;;;5016529;28;20476;-75
2023/09/03 12:25:59;;;;;;;5.30;4.33;;;27.40;99.90;;;;;;5015496;28;20453;-75
2023/09/03 12:28:35;;;;;;;4.57;4.17;;;27.50;99.90;;;;;;5015541;28;21039;-76
2023/09/03 12:31:03;;;;;;;4.43;4.03;;;27.80;99.90;;;;;;5015017;28;20594;-75
2023/09/03 12:33:47;;;;;;;3.90;3.60;;;27.80;99.90;;;;;;5017841;28;20967;-76
2023/09/03 12:36:16;;;;;;;3.47;3.20;;;27.80;99.90;;;;;;5019942;28;20461;-75
2023/09/03 12:38:51;;;;;;;4.30;3.90;;;27.80;99.90;;;;;;5019437;28;20491;-77